sensor_id;sensor_type;location;lat;lon;timestamp;pressure;altitude;pressure_sealevel;temperature;humidity
4392;BME280;2210;51.938;8.488;2023-04-04T00:03:50;101943.28;;;1.14;84.63
4392;BME280;2210;51.938;8.488;2023-04-04T00:07:53;101939.56;;;1.15;85.61
4392;BME280;2210;51.938;8.488;2023-04-04T00:11:54;101943.25;;;1.05;84.69
4392;BME280;2210;51.938;8.488;2023-04-04T00:15:54;101945.81;;;0.96;86.09
4392;BME280;2210;51.938;8.488;2023-04-04T00:20:01;101945.81;;;0.96;87.67
4392;BME280;2210;51.938;8.488;2023-04-04T00:24:03;101938.38;;;0.98;87.05
4392;BME280;2210;51.938;8.488;2023-04-04T00:28:06;101942.38;;;0.94;86.47
4392;BME280;2210;51.938;8.488;2023-04-04T00:32:06;101936.50;;;0.99;86.41
4392;BME280;2210;51.938;8.488;2023-04-04T00:36:07;101934.38;;;0.93;85.15
4392;BME280;2210;51.938;8.488;2023-04-04T00:40:08;101930.34;;;0.87;86.84
4392;BME280;2210;51.938;8.488;2023-04-04T00:44:11;101933.31;;;0.84;86.89
4392;BME280;2210;51.938;8.488;2023-04-04T00:48:12;101931.78;;;0.91;86.31
4392;BME280;2210;51.938;8.488;2023-04-04T00:52:12;101927.78;;;0.95;85.36
4392;BME280;2210;51.938;8.488;2023-04-04T00:56:13;101932.03;;;0.88;85.10
4392;BME280;2210;51.938;8.488;2023-04-04T01:00:14;101924.75;;;0.79;86.18
4392;BME280;2210;51.938;8.488;2023-04-04T01:04:15;101926.28;;;0.72;85.67
4392;BME280;2210;51.938;8.488;2023-04-04T01:08:20;101920.44;;;0.66;85.57
4392;BME280;2210;51.938;8.488;2023-04-04T01:12:21;101912.84;;;0.60;85.49
4392;BME280;2210;51.938;8.488;2023-04-04T01:16:25;101920.44;;;0.66;85.83
4392;BME280;2210;51.938;8.488;2023-04-04T01:20:28;101916.53;;;0.59;86.78
4392;BME280;2210;51.938;8.488;2023-04-04T01:24:38;101915.38;;;0.52;87.06
4392;BME280;2210;51.938;8.488;2023-04-04T01:28:42;101917.63;;;0.47;85.51
4392;BME280;2210;51.938;8.488;2023-04-04T01:33:02;101920.91;;;0.41;85.51
4392;BME280;2210;51.938;8.488;2023-04-04T01:37:10;101918.47;;;0.47;85.87
4392;BME280;2210;51.938;8.488;2023-04-04T01:41:13;101908.78;;;0.45;86.23
4392;BME280;2210;51.938;8.488;2023-04-04T01:45:14;101908.91;;;0.43;86.29
4392;BME280;2210;51.938;8.488;2023-04-04T01:49:14;101907.34;;;0.41;86.47
4392;BME280;2210;51.938;8.488;2023-04-04T01:53:15;101907.13;;;0.32;86.62
4392;BME280;2210;51.938;8.488;2023-04-04T01:57:16;101901.16;;;0.29;87.51
4392;BME280;2210;51.938;8.488;2023-04-04T02:01:16;101895.56;;;0.30;86.06
4392;BME280;2210;51.938;8.488;2023-04-04T02:05:16;101906.72;;;0.27;85.81
4392;BME280;2210;51.938;8.488;2023-04-04T02:09:23;101902.38;;;0.15;88.11
4392;BME280;2210;51.938;8.488;2023-04-04T02:13:23;101890.13;;;0.21;85.46
4392;BME280;2210;51.938;8.488;2023-04-04T02:17:24;101892.13;;;0.28;85.39
4392;BME280;2210;51.938;8.488;2023-04-04T02:21:27;101895.41;;;0.22;86.72
4392;BME280;2210;51.938;8.488;2023-04-04T02:25:30;101891.25;;;0.18;87.27
4392;BME280;2210;51.938;8.488;2023-04-04T02:29:30;101902.38;;;0.15;87.05
4392;BME280;2210;51.938;8.488;2023-04-04T02:33:34;101899.16;;;0.00;86.61
4392;BME280;2210;51.938;8.488;2023-04-04T02:37:43;101896.88;;;0.05;87.18
4392;BME280;2210;51.938;8.488;2023-04-04T02:41:43;101898.28;;;-0.01;89.08
4392;BME280;2210;51.938;8.488;2023-04-04T02:45:43;101901.25;;;-0.04;88.39
4392;BME280;2210;51.938;8.488;2023-04-04T02:49:43;101883.72;;;0.01;88.68
4392;BME280;2210;51.938;8.488;2023-04-04T02:53:47;101885.97;;;-0.05;89.08
4392;BME280;2210;51.938;8.488;2023-04-04T02:57:50;101886.53;;;-0.11;87.92
4392;BME280;2210;51.938;8.488;2023-04-04T03:01:51;101881.34;;;-0.14;89.59
4392;BME280;2210;51.938;8.488;2023-04-04T03:05:51;101883.94;;;-0.12;89.85
4392;BME280;2210;51.938;8.488;2023-04-04T03:09:52;101877.34;;;-0.20;90.67
4392;BME280;2210;51.938;8.488;2023-04-04T03:13:52;101877.06;;;-0.17;88.57
4392;BME280;2210;51.938;8.488;2023-04-04T03:17:54;101868.22;;;-0.19;89.47
4392;BME280;2210;51.938;8.488;2023-04-04T03:21:54;101867.03;;;-0.26;88.74
4392;BME280;2210;51.938;8.488;2023-04-04T03:26:04;101860.75;;;-0.26;88.91
4392;BME280;2210;51.938;8.488;2023-04-04T03:30:09;101866.16;;;-0.26;88.73
4392;BME280;2210;51.938;8.488;2023-04-04T03:34:12;101864.97;;;-0.33;89.94
4392;BME280;2210;51.938;8.488;2023-04-04T03:38:12;101862.47;;;-0.25;90.99
4392;BME280;2210;51.938;8.488;2023-04-04T03:42:13;101854.47;;;-0.27;89.93
4392;BME280;2210;51.938;8.488;2023-04-04T03:46:13;101852.16;;;-0.31;91.07
4392;BME280;2210;51.938;8.488;2023-04-04T03:50:14;101848.72;;;-0.33;91.04
4392;BME280;2210;51.938;8.488;2023-04-04T03:54:14;101855.25;;;-0.36;90.30
4392;BME280;2210;51.938;8.488;2023-04-04T03:58:14;101847.41;;;-0.39;90.82
4392;BME280;2210;51.938;8.488;2023-04-04T04:02:15;101848.41;;;-0.40;90.75
4392;BME280;2210;51.938;8.488;2023-04-04T04:06:19;101853.69;;;-0.39;90.12
4392;BME280;2210;51.938;8.488;2023-04-04T04:10:19;101833.59;;;-0.36;90.84
4392;BME280;2210;51.938;8.488;2023-04-04T04:14:19;101843.25;;;-0.43;90.32
4392;BME280;2210;51.938;8.488;2023-04-04T04:18:23;101838.03;;;-0.35;91.10
4392;BME280;2210;51.938;8.488;2023-04-04T04:22:26;101838.94;;;-0.46;90.47
4392;BME280;2210;51.938;8.488;2023-04-04T04:26:26;101841.66;;;-0.46;91.19
4392;BME280;2210;51.938;8.488;2023-04-04T04:30:26;101844.38;;;-0.46;91.91
4392;BME280;2210;51.938;8.488;2023-04-04T04:34:30;101835.78;;;-0.51;91.99
4392;BME280;2210;51.938;8.488;2023-04-04T04:38:30;101838.00;;;-0.56;92.20
4392;BME280;2210;51.938;8.488;2023-04-04T04:42:31;101838.56;;;-0.62;92.88
4392;BME280;2210;51.938;8.488;2023-04-04T04:46:34;101846.28;;;-0.58;91.52
4392;BME280;2210;51.938;8.488;2023-04-04T04:50:34;101841.19;;;-0.51;91.05
4392;BME280;2210;51.938;8.488;2023-04-04T04:54:35;101847.41;;;-0.60;90.53
4392;BME280;2210;51.938;8.488;2023-04-04T04:58:35;101844.50;;;-0.69;91.58
4392;BME280;2210;51.938;8.488;2023-04-04T05:02:35;101845.59;;;-0.71;92.01
4392;BME280;2210;51.938;8.488;2023-04-04T05:06:36;101851.63;;;-0.68;93.33
4392;BME280;2210;51.938;8.488;2023-04-04T05:10:40;101842.50;;;-0.66;92.32
4392;BME280;2210;51.938;8.488;2023-04-04T05:14:43;101845.81;;;-0.63;92.93
4392;BME280;2210;51.938;8.488;2023-04-04T05:18:43;101841.50;;;-0.65;93.56
4392;BME280;2210;51.938;8.488;2023-04-04T05:22:45;101855.06;;;-0.65;94.98
4392;BME280;2210;51.938;8.488;2023-04-04T05:26:45;101848.84;;;-0.56;93.72
4392;BME280;2210;51.938;8.488;2023-04-04T05:30:46;101853.56;;;-0.58;95.20
4392;BME280;2210;51.938;8.488;2023-04-04T05:34:49;101861.75;;;-0.48;96.18
4392;BME280;2210;51.938;8.488;2023-04-04T05:38:53;101862.09;;;-0.42;97.53
4392;BME280;2210;51.938;8.488;2023-04-04T05:42:57;101863.88;;;-0.31;95.82
4392;BME280;2210;51.938;8.488;2023-04-04T05:46:57;101872.03;;;-0.21;94.38
4392;BME280;2210;51.938;8.488;2023-04-04T05:51:01;101873.97;;;-0.12;94.93
4392;BME280;2210;51.938;8.488;2023-04-04T05:55:04;101871.44;;;-0.04;95.53
4392;BME280;2210;51.938;8.488;2023-04-04T05:59:11;101869.09;;;0.13;93.59
4392;BME280;2210;51.938;8.488;2023-04-04T06:03:11;101871.28;;;0.19;94.70
4392;BME280;2210;51.938;8.488;2023-04-04T06:07:11;101884.91;;;0.39;96.30
4392;BME280;2210;51.938;8.488;2023-04-04T06:11:11;101885.97;;;0.57;96.94
4392;BME280;2210;51.938;8.488;2023-04-04T06:15:12;101885.88;;;0.88;96.63
4392;BME280;2210;51.938;8.488;2023-04-04T06:19:12;101887.81;;;1.17;94.99
4392;BME280;2210;51.938;8.488;2023-04-04T06:23:15;101885.66;;;1.50;93.82
4392;BME280;2210;51.938;8.488;2023-04-04T06:27:15;101887.78;;;1.76;88.40
4392;BME280;2210;51.938;8.488;2023-04-04T06:31:21;101880.72;;;2.30;81.39
4392;BME280;2210;51.938;8.488;2023-04-04T06:35:22;101884.50;;;2.57;78.82
4392;BME280;2210;51.938;8.488;2023-04-04T06:39:22;101887.66;;;2.80;77.70
4392;BME280;2210;51.938;8.488;2023-04-04T06:43:22;101896.47;;;2.92;78.01
4392;BME280;2210;51.938;8.488;2023-04-04T06:47:23;101898.44;;;3.54;74.90
4392;BME280;2210;51.938;8.488;2023-04-04T06:51:23;101893.78;;;3.91;67.20
4392;BME280;2210;51.938;8.488;2023-04-04T06:55:27;101897.31;;;3.83;65.01
4392;BME280;2210;51.938;8.488;2023-04-04T06:59:34;101890.69;;;3.85;63.23
4392;BME280;2210;51.938;8.488;2023-04-04T07:03:37;101897.88;;;4.13;64.50
4392;BME280;2210;51.938;8.488;2023-04-04T07:07:37;101888.09;;;4.71;60.88
4392;BME280;2210;51.938;8.488;2023-04-04T07:11:38;101883.00;;;4.42;59.39
4392;BME280;2210;51.938;8.488;2023-04-04T07:15:38;101885.53;;;4.69;58.18
4392;BME280;2210;51.938;8.488;2023-04-04T07:19:41;101878.72;;;4.73;56.81
4392;BME280;2210;51.938;8.488;2023-04-04T07:23:42;101876.69;;;4.84;55.73
4392;BME280;2210;51.938;8.488;2023-04-04T07:27:42;101872.63;;;4.96;57.54
4392;BME280;2210;51.938;8.488;2023-04-04T07:31:42;101870.56;;;4.47;55.13
4392;BME280;2210;51.938;8.488;2023-04-04T07:35:43;101873.69;;;5.12;56.40
4392;BME280;2210;51.938;8.488;2023-04-04T07:39:43;101870.97;;;5.20;54.07
4392;BME280;2210;51.938;8.488;2023-04-04T07:43:44;101865.34;;;5.46;52.84
4392;BME280;2210;51.938;8.488;2023-04-04T07:47:45;101872.00;;;5.52;53.62
4392;BME280;2210;51.938;8.488;2023-04-04T07:51:45;101864.84;;;5.43;53.12
4392;BME280;2210;51.938;8.488;2023-04-04T07:55:49;101857.66;;;5.33;52.01
4392;BME280;2210;51.938;8.488;2023-04-04T07:59:52;101847.72;;;5.49;52.15
4392;BME280;2210;51.938;8.488;2023-04-04T08:03:52;101856.47;;;5.52;52.61
4392;BME280;2210;51.938;8.488;2023-04-04T08:07:53;101864.13;;;6.06;52.60
4392;BME280;2210;51.938;8.488;2023-04-04T08:11:56;101862.78;;;5.61;51.93
4392;BME280;2210;51.938;8.488;2023-04-04T08:15:57;101860.81;;;6.28;51.42
4392;BME280;2210;51.938;8.488;2023-04-04T08:19:57;101860.53;;;6.06;50.95
4392;BME280;2210;51.938;8.488;2023-04-04T08:23:57;101861.72;;;5.95;51.50
4392;BME280;2210;51.938;8.488;2023-04-04T08:28:04;101854.88;;;5.91;51.53
4392;BME280;2210;51.938;8.488;2023-04-04T08:32:04;101854.41;;;5.46;51.31
4392;BME280;2210;51.938;8.488;2023-04-04T08:36:04;101858.81;;;5.88;51.12
4392;BME280;2210;51.938;8.488;2023-04-04T08:40:05;101854.19;;;6.14;51.10
4392;BME280;2210;51.938;8.488;2023-04-04T08:44:08;101851.28;;;6.07;50.73
4392;BME280;2210;51.938;8.488;2023-04-04T08:48:14;101849.34;;;6.32;50.45
4392;BME280;2210;51.938;8.488;2023-04-04T08:52:21;101843.28;;;6.45;50.40
4392;BME280;2210;51.938;8.488;2023-04-04T08:56:22;101849.63;;;6.37;50.61
4392;BME280;2210;51.938;8.488;2023-04-04T09:00:22;101854.19;;;6.05;49.95
4392;BME280;2210;51.938;8.488;2023-04-04T09:04:23;101851.09;;;6.17;49.84
4392;BME280;2210;51.938;8.488;2023-04-04T09:08:27;101854.38;;;6.52;50.56
4392;BME280;2210;51.938;8.488;2023-04-04T09:12:30;101862.25;;;5.74;49.51
4392;BME280;2210;51.938;8.488;2023-04-04T09:16:34;101853.06;;;6.39;51.04
4392;BME280;2210;51.938;8.488;2023-04-04T09:20:47;101850.91;;;6.66;49.35
4392;BME280;2210;51.938;8.488;2023-04-04T09:24:47;101848.50;;;6.63;49.22
4392;BME280;2210;51.938;8.488;2023-04-04T09:28:55;101850.19;;;6.72;48.36
4392;BME280;2210;51.938;8.488;2023-04-04T09:33:00;101842.28;;;6.78;49.28
4392;BME280;2210;51.938;8.488;2023-04-04T09:37:07;101838.81;;;6.84;49.60
4392;BME280;2210;51.938;8.488;2023-04-04T09:41:07;101835.91;;;6.85;49.62
4392;BME280;2210;51.938;8.488;2023-04-04T09:45:10;101843.47;;;6.44;48.86
4392;BME280;2210;51.938;8.488;2023-04-04T09:49:18;101851.09;;;6.17;49.30
4392;BME280;2210;51.938;8.488;2023-04-04T09:53:37;101838.31;;;6.80;48.17
4392;BME280;2210;51.938;8.488;2023-04-04T10:06:02;101825.50;;;7.27;46.06
4392;BME280;2210;51.938;8.488;2023-04-04T10:10:13;101829.22;;;7.11;47.18
4392;BME280;2210;51.938;8.488;2023-04-04T10:14:14;101824.69;;;6.95;45.75
4392;BME280;2210;51.938;8.488;2023-04-04T10:18:16;101821.03;;;6.80;47.06
4392;BME280;2210;51.938;8.488;2023-04-04T10:22:37;101810.81;;;6.65;46.49
4392;BME280;2210;51.938;8.488;2023-04-04T10:26:37;101806.66;;;7.01;46.07
4392;BME280;2210;51.938;8.488;2023-04-04T10:34:55;101804.53;;;7.11;48.09
4392;BME280;2210;51.938;8.488;2023-04-04T10:43:59;101795.03;;;7.60;45.82
4392;BME280;2210;51.938;8.488;2023-04-04T10:48:01;101784.16;;;7.29;47.38
4392;BME280;2210;51.938;8.488;2023-04-04T10:52:05;101783.19;;;7.21;46.02
4392;BME280;2210;51.938;8.488;2023-04-04T10:56:06;101790.00;;;7.25;47.55
4392;BME280;2210;51.938;8.488;2023-04-04T11:00:14;101785.09;;;6.98;47.18
4392;BME280;2210;51.938;8.488;2023-04-04T11:04:28;101775.91;;;7.14;46.71
4392;BME280;2210;51.938;8.488;2023-04-04T11:08:30;101770.34;;;6.99;46.66
4392;BME280;2210;51.938;8.488;2023-04-04T11:12:44;101762.34;;;7.35;46.85
4392;BME280;2210;51.938;8.488;2023-04-04T11:16:45;101754.16;;;7.95;46.49
4392;BME280;2210;51.938;8.488;2023-04-04T11:20:47;101751.22;;;7.82;46.07
4392;BME280;2210;51.938;8.488;2023-04-04T11:24:47;101743.94;;;7.89;45.09
4392;BME280;2210;51.938;8.488;2023-04-04T11:28:49;101753.84;;;7.45;45.22
4392;BME280;2210;51.938;8.488;2023-04-04T11:32:49;101739.75;;;7.78;44.89
4392;BME280;2210;51.938;8.488;2023-04-04T11:36:51;101735.50;;;7.75;45.33
4392;BME280;2210;51.938;8.488;2023-04-04T11:40:55;101732.66;;;7.99;46.98
4392;BME280;2210;51.938;8.488;2023-04-04T11:49:01;101713.25;;;7.85;44.72
4392;BME280;2210;51.938;8.488;2023-04-04T11:53:09;101719.97;;;7.53;46.11
4392;BME280;2210;51.938;8.488;2023-04-04T11:57:15;101703.13;;;7.86;44.96
4392;BME280;2210;51.938;8.488;2023-04-04T12:01:21;101702.56;;;8.27;44.44
4392;BME280;2210;51.938;8.488;2023-04-04T12:05:22;101692.00;;;8.09;46.14
4392;BME280;2210;51.938;8.488;2023-04-04T12:09:29;101688.44;;;8.30;46.15
4392;BME280;2210;51.938;8.488;2023-04-04T12:13:42;101689.44;;;8.59;45.64
4392;BME280;2210;51.938;8.488;2023-04-04T12:17:48;101688.25;;;7.95;45.29
4392;BME280;2210;51.938;8.488;2023-04-04T12:21:53;101687.00;;;8.13;44.79
4392;BME280;2210;51.938;8.488;2023-04-04T12:25:55;101686.22;;;8.19;47.27
4392;BME280;2210;51.938;8.488;2023-04-04T12:29:56;101672.50;;;8.40;47.57
4392;BME280;2210;51.938;8.488;2023-04-04T12:34:04;101659.41;;;8.79;44.93
4392;BME280;2210;51.938;8.488;2023-04-04T12:38:15;101660.84;;;8.17;43.47
4392;BME280;2210;51.938;8.488;2023-04-04T12:42:23;101652.22;;;8.41;44.80
4392;BME280;2210;51.938;8.488;2023-04-04T12:46:41;101650.03;;;8.15;43.85
4392;BME280;2210;51.938;8.488;2023-04-04T12:51:03;101644.28;;;8.68;44.96
4392;BME280;2210;51.938;8.488;2023-04-04T12:55:08;101636.44;;;9.22;44.05
4392;BME280;2210;51.938;8.488;2023-04-04T12:59:09;101632.84;;;8.93;43.64
4392;BME280;2210;51.938;8.488;2023-04-04T13:03:12;101623.97;;;8.48;43.06
4392;BME280;2210;51.938;8.488;2023-04-04T13:07:36;101615.72;;;8.69;46.51
4392;BME280;2210;51.938;8.488;2023-04-04T13:12:02;101609.16;;;8.92;43.43
4392;BME280;2210;51.938;8.488;2023-04-04T13:16:28;101613.34;;;8.88;43.37
4392;BME280;2210;51.938;8.488;2023-04-04T13:20:43;101607.63;;;9.18;42.95
4392;BME280;2210;51.938;8.488;2023-04-04T13:24:56;101598.88;;;9.07;42.00
4392;BME280;2210;51.938;8.488;2023-04-04T13:28:59;101592.66;;;8.92;41.29
4392;BME280;2210;51.938;8.488;2023-04-04T13:33:03;101576.38;;;8.69;42.82
4392;BME280;2210;51.938;8.488;2023-04-04T13:37:03;101577.84;;;8.93;42.42
4392;BME280;2210;51.938;8.488;2023-04-04T13:41:13;101575.28;;;8.41;41.49
4392;BME280;2210;51.938;8.488;2023-04-04T13:45:13;101566.59;;;8.88;41.79
4392;BME280;2210;51.938;8.488;2023-04-04T13:49:13;101554.72;;;9.16;42.18
4392;BME280;2210;51.938;8.488;2023-04-04T13:53:13;101554.97;;;8.86;42.64
4392;BME280;2210;51.938;8.488;2023-04-04T13:57:20;101547.63;;;9.00;41.20
4392;BME280;2210;51.938;8.488;2023-04-04T14:01:23;101548.19;;;8.88;42.56
4392;BME280;2210;51.938;8.488;2023-04-04T14:05:29;101539.88;;;8.82;41.41
4392;BME280;2210;51.938;8.488;2023-04-04T14:09:33;101537.47;;;9.00;42.03
4392;BME280;2210;51.938;8.488;2023-04-04T14:13:33;101527.34;;;8.72;43.19
4392;BME280;2210;51.938;8.488;2023-04-04T14:17:34;101537.63;;;8.92;44.50
4392;BME280;2210;51.938;8.488;2023-04-04T14:21:34;101526.19;;;8.88;42.85
4392;BME280;2210;51.938;8.488;2023-04-04T14:25:34;101526.94;;;8.75;42.83
4392;BME280;2210;51.938;8.488;2023-04-04T14:29:35;101528.88;;;8.82;43.71
4392;BME280;2210;51.938;8.488;2023-04-04T14:33:38;101524.72;;;8.86;43.86
4392;BME280;2210;51.938;8.488;2023-04-04T14:37:39;101510.72;;;8.81;43.64
4392;BME280;2210;51.938;8.488;2023-04-04T14:41:39;101508.91;;;8.66;42.63
4392;BME280;2210;51.938;8.488;2023-04-04T14:45:39;101502.88;;;8.84;44.16
4392;BME280;2210;51.938;8.488;2023-04-04T14:49:40;101498.72;;;8.60;42.74
4392;BME280;2210;51.938;8.488;2023-04-04T14:53:42;101498.16;;;8.71;43.24
4392;BME280;2210;51.938;8.488;2023-04-04T14:57:42;101483.28;;;8.94;43.57
4392;BME280;2210;51.938;8.488;2023-04-04T15:01:44;101484.75;;;8.90;45.14
4392;BME280;2210;51.938;8.488;2023-04-04T15:05:44;101479.63;;;8.87;45.24
4392;BME280;2210;51.938;8.488;2023-04-04T15:09:51;101483.38;;;8.72;43.75
4392;BME280;2210;51.938;8.488;2023-04-04T15:14:11;101477.53;;;8.89;45.70
4392;BME280;2210;51.938;8.488;2023-04-04T15:18:18;101476.19;;;8.78;45.22
4392;BME280;2210;51.938;8.488;2023-04-04T15:22:18;101471.19;;;8.53;44.02
4392;BME280;2210;51.938;8.488;2023-04-04T15:26:24;101470.94;;;8.48;43.82
4392;BME280;2210;51.938;8.488;2023-04-04T15:30:28;101472.13;;;8.67;43.23
4392;BME280;2210;51.938;8.488;2023-04-04T15:34:28;101477.69;;;8.81;44.96
4392;BME280;2210;51.938;8.488;2023-04-04T15:38:28;101479.06;;;8.63;42.83
4392;BME280;2210;51.938;8.488;2023-04-04T15:42:29;101474.03;;;8.73;44.07
4392;BME280;2210;51.938;8.488;2023-04-04T15:46:37;101479.50;;;8.67;44.17
4392;BME280;2210;51.938;8.488;2023-04-04T15:50:43;101481.34;;;8.59;43.22
4392;BME280;2210;51.938;8.488;2023-04-04T15:54:43;101467.91;;;8.43;43.63
4392;BME280;2210;51.938;8.488;2023-04-04T15:58:43;101470.81;;;8.63;47.34
4392;BME280;2210;51.938;8.488;2023-04-04T16:02:49;101463.44;;;8.42;44.54
4392;BME280;2210;51.938;8.488;2023-04-04T16:06:50;101466.19;;;8.42;44.50
4392;BME280;2210;51.938;8.488;2023-04-04T16:10:50;101467.97;;;8.50;44.02
4392;BME280;2210;51.938;8.488;2023-04-04T16:14:54;101459.41;;;8.38;42.83
4392;BME280;2210;51.938;8.488;2023-04-04T16:18:54;101469.09;;;8.34;44.67
4392;BME280;2210;51.938;8.488;2023-04-04T16:23:00;101463.13;;;8.30;45.07
4392;BME280;2210;51.938;8.488;2023-04-04T16:27:10;101458.44;;;8.24;45.28
4392;BME280;2210;51.938;8.488;2023-04-04T16:31:14;101455.44;;;8.19;45.45
4392;BME280;2210;51.938;8.488;2023-04-04T16:35:17;101449.38;;;8.23;46.18
4392;BME280;2210;51.938;8.488;2023-04-04T16:39:17;101454.69;;;8.03;44.74
4392;BME280;2210;51.938;8.488;2023-04-04T16:43:18;101460.75;;;7.99;45.39
4392;BME280;2210;51.938;8.488;2023-04-04T16:47:18;101447.78;;;7.86;44.23
4392;BME280;2210;51.938;8.488;2023-04-04T16:51:18;101448.41;;;7.88;45.44
4392;BME280;2210;51.938;8.488;2023-04-04T16:55:18;101439.47;;;7.79;44.89
4392;BME280;2210;51.938;8.488;2023-04-04T16:59:19;101437.56;;;7.80;45.37
4392;BME280;2210;51.938;8.488;2023-04-04T17:03:23;101443.72;;;7.82;47.59
4392;BME280;2210;51.938;8.488;2023-04-04T17:07:23;101440.44;;;7.71;46.36
4392;BME280;2210;51.938;8.488;2023-04-04T17:11:24;101434.94;;;7.71;44.02
4392;BME280;2210;51.938;8.488;2023-04-04T17:15:24;101431.31;;;7.64;43.81
4392;BME280;2210;51.938;8.488;2023-04-04T17:19:26;101432.47;;;7.55;43.95
4392;BME280;2210;51.938;8.488;2023-04-04T17:23:26;101427.75;;;7.49;44.08
4392;BME280;2210;51.938;8.488;2023-04-04T17:27:26;101426.00;;;7.41;44.74
4392;BME280;2210;51.938;8.488;2023-04-04T17:31:26;101431.56;;;7.48;44.49
4392;BME280;2210;51.938;8.488;2023-04-04T17:35:27;101429.00;;;7.46;44.91
4392;BME280;2210;51.938;8.488;2023-04-04T17:39:27;101433.94;;;7.36;44.80
4392;BME280;2210;51.938;8.488;2023-04-04T17:43:28;101437.31;;;7.16;45.88
4392;BME280;2210;51.938;8.488;2023-04-04T17:47:29;101434.63;;;7.23;48.46
4392;BME280;2210;51.938;8.488;2023-04-04T17:51:29;101434.03;;;7.06;47.17
4392;BME280;2210;51.938;8.488;2023-04-04T17:55:43;101436.47;;;7.01;47.68
4392;BME280;2210;51.938;8.488;2023-04-04T17:59:44;101438.09;;;6.95;49.11
4392;BME280;2210;51.938;8.488;2023-04-04T18:03:51;101441.78;;;6.87;49.09
4392;BME280;2210;51.938;8.488;2023-04-04T18:07:52;101442.91;;;6.78;50.09
4392;BME280;2210;51.938;8.488;2023-04-04T18:11:52;101441.59;;;6.74;49.16
4392;BME280;2210;51.938;8.488;2023-04-04T18:15:53;101437.72;;;6.68;49.72
4392;BME280;2210;51.938;8.488;2023-04-04T18:19:54;101453.34;;;6.68;49.22
4392;BME280;2210;51.938;8.488;2023-04-04T18:23:56;101451.16;;;6.63;49.47
4392;BME280;2210;51.938;8.488;2023-04-04T18:28:03;101447.47;;;6.56;50.20
4392;BME280;2210;51.938;8.488;2023-04-04T18:32:06;101460.69;;;6.52;49.67
4392;BME280;2210;51.938;8.488;2023-04-04T18:36:06;101458.50;;;6.48;49.49
4392;BME280;2210;51.938;8.488;2023-04-04T18:40:07;101450.88;;;6.43;50.64
4392;BME280;2210;51.938;8.488;2023-04-04T18:44:08;101456.25;;;6.36;51.43
4392;BME280;2210;51.938;8.488;2023-04-04T18:48:08;101454.72;;;6.34;51.25
4392;BME280;2210;51.938;8.488;2023-04-04T18:52:12;101461.97;;;6.27;52.50
4392;BME280;2210;51.938;8.488;2023-04-04T18:56:12;101464.97;;;6.17;52.45
4392;BME280;2210;51.938;8.488;2023-04-04T19:00:18;101472.22;;;6.10;53.28
4392;BME280;2210;51.938;8.488;2023-04-04T19:04:19;101466.16;;;5.99;53.78
4392;BME280;2210;51.938;8.488;2023-04-04T19:08:20;101470.06;;;5.97;53.59
4392;BME280;2210;51.938;8.488;2023-04-04T19:12:21;101474.78;;;5.88;54.45
4392;BME280;2210;51.938;8.488;2023-04-04T19:16:22;101475.34;;;5.83;54.35
4392;BME280;2210;51.938;8.488;2023-04-04T19:20:29;101476.94;;;5.69;54.64
4392;BME280;2210;51.938;8.488;2023-04-04T19:24:29;101476.94;;;5.69;56.22
4392;BME280;2210;51.938;8.488;2023-04-04T19:28:30;101481.94;;;5.66;55.48
4392;BME280;2210;51.938;8.488;2023-04-04T19:32:30;101468.81;;;5.61;55.69
4392;BME280;2210;51.938;8.488;2023-04-04T19:36:36;101476.22;;;5.52;56.19
4392;BME280;2210;51.938;8.488;2023-04-04T19:40:48;101466.97;;;5.53;55.99
4392;BME280;2210;51.938;8.488;2023-04-04T19:44:49;101472.78;;;5.50;56.20
4392;BME280;2210;51.938;8.488;2023-04-04T19:48:51;101479.47;;;5.48;57.38
4392;BME280;2210;51.938;8.488;2023-04-04T19:52:53;101469.59;;;5.47;57.06
4392;BME280;2210;51.938;8.488;2023-04-04T19:56:59;101482.25;;;5.39;57.82
4392;BME280;2210;51.938;8.488;2023-04-04T20:01:00;101478.31;;;5.42;59.32
4392;BME280;2210;51.938;8.488;2023-04-04T20:09:32;101473.28;;;5.31;58.93
4392;BME280;2210;51.938;8.488;2023-04-04T20:13:34;101482.50;;;5.30;58.64
4392;BME280;2210;51.938;8.488;2023-04-04T20:17:35;101472.75;;;5.27;58.61
4392;BME280;2210;51.938;8.488;2023-04-04T20:21:35;101477.94;;;5.14;57.71
4392;BME280;2210;51.938;8.488;2023-04-04T20:25:38;101483.28;;;5.07;57.42
4392;BME280;2210;51.938;8.488;2023-04-04T20:29:45;101471.88;;;5.03;56.52
4392;BME280;2210;51.938;8.488;2023-04-04T20:33:46;101478.97;;;5.13;57.71
4392;BME280;2210;51.938;8.488;2023-04-04T20:37:46;101469.75;;;5.14;58.45
4392;BME280;2210;51.938;8.488;2023-04-04T20:41:46;101474.19;;;5.15;59.42
4392;BME280;2210;51.938;8.488;2023-04-04T20:45:47;101473.22;;;5.07;59.00
4392;BME280;2210;51.938;8.488;2023-04-04T20:49:52;101475.41;;;5.12;59.88
4392;BME280;2210;51.938;8.488;2023-04-04T20:53:54;101474.19;;;5.15;60.27
4392;BME280;2210;51.938;8.488;2023-04-04T20:58:27;101471.81;;;5.12;58.51
4392;BME280;2210;51.938;8.488;2023-04-04T21:02:30;101473.53;;;5.04;58.94
4392;BME280;2210;51.938;8.488;2023-04-04T21:06:31;101481.44;;;4.99;58.87
4392;BME280;2210;51.938;8.488;2023-04-04T21:14:41;101466.59;;;4.94;61.36
4392;BME280;2210;51.938;8.488;2023-04-04T21:18:43;101467.59;;;5.01;62.60
4392;BME280;2210;51.938;8.488;2023-04-04T21:22:46;101463.56;;;4.88;60.95
4392;BME280;2210;51.938;8.488;2023-04-04T21:26:48;101458.78;;;4.82;61.42
4392;BME280;2210;51.938;8.488;2023-04-04T21:30:48;101460.34;;;4.77;62.88
4392;BME280;2210;51.938;8.488;2023-04-04T21:34:49;101462.06;;;4.78;62.37
4392;BME280;2210;51.938;8.488;2023-04-04T21:38:50;101459.69;;;4.66;63.37
4392;BME280;2210;51.938;8.488;2023-04-04T21:42:57;101463.47;;;4.57;64.87
4392;BME280;2210;51.938;8.488;2023-04-04T21:47:00;101449.00;;;4.48;64.43
4392;BME280;2210;51.938;8.488;2023-04-04T21:51:00;101459.75;;;4.42;63.52
4392;BME280;2210;51.938;8.488;2023-04-04T21:55:01;101451.41;;;4.35;63.81
4392;BME280;2210;51.938;8.488;2023-04-04T21:59:05;101452.09;;;4.20;65.93
4392;BME280;2210;51.938;8.488;2023-04-04T22:03:10;101448.72;;;4.10;66.31
4392;BME280;2210;51.938;8.488;2023-04-04T22:07:10;101447.53;;;3.96;67.82
4392;BME280;2210;51.938;8.488;2023-04-04T22:11:14;101443.28;;;3.77;68.09
4392;BME280;2210;51.938;8.488;2023-04-04T22:15:18;101440.03;;;3.65;68.95
4392;BME280;2210;51.938;8.488;2023-04-04T22:19:28;101440.69;;;3.59;70.50
4392;BME280;2210;51.938;8.488;2023-04-04T22:23:36;101435.03;;;3.52;70.04
4392;BME280;2210;51.938;8.488;2023-04-04T22:27:42;101436.22;;;3.42;70.29
4392;BME280;2210;51.938;8.488;2023-04-04T22:31:52;101426.16;;;3.26;70.36